createdAt,value
2022-12-15T00:01:46.755Z,23.20
2022-12-15T00:04:33.028Z,22.07
2022-12-15T00:07:18.978Z,16.97
2022-12-15T00:10:05.033Z,18.07
2022-12-15T00:12:51.212Z,17.13
2022-12-15T00:15:37.605Z,14.93
2022-12-15T00:18:25.256Z,16.60
2022-12-15T00:21:15.647Z,15.20
2022-12-15T00:24:02.197Z,16.05
2022-12-15T00:26:48.410Z,12.50
2022-12-15T00:29:34.528Z,13.52
2022-12-15T00:32:20.735Z,14.07
2022-12-15T00:35:06.927Z,12.53
2022-12-15T00:37:53.136Z,13.80
2022-12-15T00:40:20.706Z,13.05
2022-12-15T00:42:49.584Z,11.83
2022-12-15T00:45:17.550Z,13.93
2022-12-15T00:47:45.263Z,11.90
2022-12-15T00:50:31.579Z,13.48
2022-12-15T00:53:17.600Z,14.07
2022-12-15T00:56:03.909Z,13.63
2022-12-15T00:58:50.401Z,15.63
2022-12-15T01:01:36.739Z,13.37
2022-12-15T01:04:22.921Z,16.50
2022-12-15T01:07:08.914Z,11.98
2022-12-15T01:09:55.277Z,12.87
2022-12-15T01:12:41.423Z,10.03
2022-12-15T01:15:27.998Z,12.40
2022-12-15T01:18:14.082Z,10.97
2022-12-15T01:20:41.745Z,12.13
2022-12-15T01:23:09.555Z,11.38
2022-12-15T01:25:39.421Z,10.45
2022-12-15T01:28:07.098Z,12.73
2022-12-15T01:30:34.736Z,11.80
2022-12-15T01:33:02.292Z,14.63
2022-12-15T01:35:29.870Z,12.10
2022-12-15T01:37:57.494Z,11.85
2022-12-15T01:40:43.631Z,11.87
2022-12-15T01:43:26.433Z,13.05
2022-12-15T01:45:58.118Z,10.65
2022-12-15T01:48:38.453Z,12.02
2022-12-15T01:51:39.684Z,10.30
2022-12-15T01:54:13.582Z,12.32
2022-12-15T01:56:44.877Z,13.52
2022-12-15T01:59:15.682Z,14.37
2022-12-15T02:01:43.392Z,10.13
2022-12-15T02:04:21.772Z,11.30
2022-12-15T02:06:49.990Z,10.03
2022-12-15T02:09:19.293Z,12.18
2022-12-15T02:12:20.630Z,11.10
2022-12-15T02:15:07.230Z,12.03
2022-12-15T02:17:55.508Z,12.43
2022-12-15T02:21:00.004Z,11.10
2022-12-15T02:23:53.958Z,12.23
2022-12-15T02:26:47.124Z,9.53
2022-12-15T02:29:42.501Z,11.75
2022-12-15T02:32:16.781Z,10.13
2022-12-15T02:35:09.581Z,12.87
2022-12-15T02:37:39.942Z,14.05
2022-12-15T02:40:10.184Z,11.83
2022-12-15T02:42:45.516Z,13.37
2022-12-15T02:45:16.627Z,12.10
2022-12-15T02:48:23.079Z,11.77
2022-12-15T02:50:56.826Z,12.50
2022-12-15T02:54:02.978Z,13.30
2022-12-15T02:56:49.171Z,11.97
2022-12-15T02:59:43.843Z,12.37
2022-12-15T03:02:14.135Z,11.68
2022-12-15T03:04:43.496Z,12.17
2022-12-15T03:07:11.756Z,10.98
2022-12-15T03:09:39.431Z,13.00
2022-12-15T03:12:07.532Z,15.02
2022-12-15T03:14:35.191Z,12.73
2022-12-15T03:17:04.430Z,12.77
2022-12-15T03:19:32.075Z,11.43
2022-12-15T03:21:59.740Z,11.30
2022-12-15T03:24:27.304Z,13.13
2022-12-15T03:26:54.884Z,12.23
2022-12-15T03:29:22.547Z,13.53
2022-12-15T03:31:50.387Z,13.70
2022-12-15T03:34:18.231Z,12.33
2022-12-15T03:36:45.926Z,13.70
2022-12-15T03:39:13.941Z,15.05
2022-12-15T03:41:41.800Z,13.97
2022-12-15T03:44:09.829Z,13.03
2022-12-15T03:46:37.582Z,12.63
2022-12-15T03:49:05.532Z,14.60
2022-12-15T03:51:33.231Z,13.23
2022-12-15T03:54:00.795Z,19.67
2022-12-15T03:56:28.391Z,18.97
2022-12-15T03:58:56.275Z,15.37
2022-12-15T04:01:35.567Z,16.17
2022-12-15T04:04:05.070Z,16.03
2022-12-15T04:06:32.886Z,15.70
2022-12-15T04:09:00.458Z,13.67
2022-12-15T04:11:28.117Z,13.53
2022-12-15T04:13:56.228Z,15.73
2022-12-15T04:16:24.035Z,13.93
2022-12-15T04:19:11.696Z,14.23
2022-12-15T04:21:39.494Z,15.57
2022-12-15T04:24:25.680Z,17.53
2022-12-15T04:27:11.727Z,14.40
2022-12-15T04:29:57.564Z,14.73
2022-12-15T04:32:43.603Z,14.90
2022-12-15T04:35:30.916Z,13.23
2022-12-15T04:38:17.351Z,17.48
2022-12-15T04:41:03.600Z,16.07
2022-12-15T04:43:49.695Z,14.87
2022-12-15T04:46:35.921Z,15.10
2022-12-15T04:49:22.082Z,15.40
2022-12-15T04:52:08.076Z,16.63
2022-12-15T04:54:54.139Z,17.03
2022-12-15T04:57:40.390Z,16.50
2022-12-15T05:00:27.297Z,13.67
2022-12-15T05:03:18.145Z,17.27
2022-12-15T05:06:04.875Z,13.60
2022-12-15T05:08:52.076Z,13.33
2022-12-15T05:11:38.080Z,13.97
2022-12-15T05:14:24.648Z,11.33
2022-12-15T05:17:10.855Z,13.87
2022-12-15T05:19:56.771Z,11.67
2022-12-15T05:22:43.109Z,14.90
2022-12-15T05:25:29.265Z,15.50
2022-12-15T05:28:15.317Z,12.10
2022-12-15T05:31:01.445Z,13.87
2022-12-15T05:33:29.267Z,12.87
2022-12-15T05:36:00.752Z,13.17
2022-12-15T05:38:28.457Z,14.17
2022-12-15T05:41:00.327Z,13.90
2022-12-15T05:43:29.097Z,13.53
2022-12-15T05:45:57.247Z,14.13
2022-12-15T05:48:27.123Z,13.67
2022-12-15T05:50:54.906Z,14.37
2022-12-15T05:53:22.552Z,13.37
2022-12-15T05:55:50.334Z,14.80
2022-12-15T05:58:18.010Z,13.00
2022-12-15T06:00:45.592Z,12.80
2022-12-15T06:03:13.253Z,13.00
2022-12-15T06:05:40.950Z,13.38
2022-12-15T06:08:08.850Z,13.05
2022-12-15T06:10:36.638Z,15.57
2022-12-15T06:13:05.380Z,12.40
2022-12-15T06:15:32.954Z,14.23
2022-12-15T06:18:00.580Z,12.80
2022-12-15T06:20:28.207Z,13.40
2022-12-15T06:22:55.800Z,15.07
2022-12-15T06:25:23.438Z,15.37
2022-12-15T06:27:50.987Z,13.38
2022-12-15T06:30:19.275Z,14.37
2022-12-15T06:32:46.916Z,13.70
2022-12-15T06:35:17.654Z,13.65
2022-12-15T06:37:45.223Z,14.83
2022-12-15T06:40:13.241Z,13.03
2022-12-15T06:42:40.824Z,10.87
2022-12-15T06:45:08.951Z,14.07
2022-12-15T06:47:36.601Z,13.47
2022-12-15T06:50:04.443Z,12.80
2022-12-15T06:52:32.041Z,12.47
2022-12-15T06:54:59.672Z,12.93
2022-12-15T06:57:27.314Z,13.40
2022-12-15T06:59:54.940Z,13.07
2022-12-15T07:02:28.661Z,15.90
2022-12-15T07:04:56.755Z,12.38
2022-12-15T07:07:24.597Z,13.47
2022-12-15T07:09:52.449Z,11.30
2022-12-15T07:12:20.322Z,15.57
2022-12-15T07:14:53.355Z,15.80
2022-12-15T07:17:21.393Z,16.40
2022-12-15T07:19:48.993Z,16.87
2022-12-15T07:22:16.599Z,14.52
2022-12-15T07:24:44.178Z,15.60
2022-12-15T07:27:11.923Z,19.50
2022-12-15T07:29:39.469Z,18.73
2022-12-15T07:32:07.316Z,14.27
2022-12-15T07:34:35.011Z,13.00
2022-12-15T07:37:03.739Z,17.80
2022-12-15T07:39:31.331Z,15.27
2022-12-15T07:41:58.964Z,13.90
2022-12-15T07:44:29.071Z,12.95
2022-12-15T07:46:56.773Z,14.23
2022-12-15T07:49:24.377Z,12.88
2022-12-15T07:51:52.148Z,13.85
2022-12-15T07:54:20.601Z,15.77
2022-12-15T07:56:50.333Z,16.67
2022-12-15T07:59:18.614Z,16.67
2022-12-15T08:01:46.980Z,19.93
2022-12-15T08:04:14.812Z,16.88
2022-12-15T08:06:43.029Z,31.97
2022-12-15T08:09:11.081Z,22.90
2022-12-15T08:11:38.972Z,27.77
2022-12-15T08:14:12.038Z,27.67
2022-12-15T08:16:41.402Z,15.48
2022-12-15T08:19:12.225Z,15.00
2022-12-15T08:21:40.927Z,14.75
2022-12-15T08:24:09.863Z,14.82
2022-12-15T08:26:38.445Z,33.20
2022-12-15T08:31:56.283Z,21.23
2022-12-15T08:34:23.957Z,18.17
2022-12-15T08:36:51.796Z,28.52
2022-12-15T08:39:19.419Z,21.50
2022-12-15T08:41:47.038Z,17.02
2022-12-15T08:44:17.098Z,16.52
2022-12-15T08:46:44.836Z,19.35
2022-12-15T08:49:16.481Z,18.77
2022-12-15T08:51:50.185Z,13.82
2022-12-15T08:54:19.506Z,15.13
2022-12-15T08:56:47.623Z,17.95
2022-12-15T08:59:15.923Z,17.65
2022-12-15T09:01:43.773Z,17.27
2022-12-15T09:04:11.630Z,21.67
2022-12-15T09:06:39.332Z,23.15
2022-12-15T09:09:10.676Z,16.75
2022-12-15T09:11:38.497Z,20.83
2022-12-15T09:14:06.888Z,23.55
2022-12-15T09:16:34.791Z,18.63
2022-12-15T09:19:02.737Z,16.00
2022-12-15T09:21:30.841Z,16.50
2022-12-15T09:24:01.936Z,13.13
2022-12-15T09:26:32.448Z,17.40
2022-12-15T09:29:02.081Z,13.48
2022-12-15T09:31:37.102Z,12.05
2022-12-15T09:34:04.812Z,13.00
2022-12-15T09:36:33.110Z,13.13
2022-12-15T09:39:02.377Z,11.90
2022-12-15T09:41:36.478Z,11.50
2022-12-15T09:44:04.099Z,11.70
2022-12-15T09:46:56.066Z,12.05
2022-12-15T09:49:46.150Z,11.30
2022-12-15T09:52:20.002Z,11.05
2022-12-15T09:54:47.897Z,11.93
2022-12-15T09:57:44.683Z,10.43
2022-12-15T10:00:25.677Z,11.70
2022-12-15T10:03:17.667Z,9.82
2022-12-15T10:06:17.063Z,10.52
2022-12-15T10:09:19.752Z,11.35
2022-12-15T10:14:54.392Z,11.55
2022-12-15T10:17:25.721Z,12.48
2022-12-15T10:20:19.740Z,14.43
2022-12-15T10:22:50.502Z,11.90
2022-12-15T10:25:29.651Z,11.70
2022-12-15T10:28:15.589Z,12.07
2022-12-15T10:30:59.364Z,12.10
2022-12-15T10:33:35.658Z,10.63
2022-12-15T10:36:11.230Z,12.88
2022-12-15T10:38:42.580Z,12.23
2022-12-15T10:41:12.401Z,14.25
2022-12-15T10:43:42.424Z,13.85
2022-12-15T10:46:25.140Z,15.20
2022-12-15T10:48:59.345Z,17.55
2022-12-15T10:51:31.751Z,14.48
2022-12-15T10:54:11.729Z,15.57
2022-12-15T10:57:00.425Z,16.65
2022-12-15T10:59:34.345Z,12.00
2022-12-15T11:02:23.988Z,13.68
2022-12-15T11:05:15.766Z,12.57
2022-12-15T11:07:55.241Z,14.02
2022-12-15T11:10:24.446Z,12.52
2022-12-15T11:13:10.696Z,13.07
2022-12-15T11:15:41.788Z,15.85
2022-12-15T11:18:19.750Z,16.50
2022-12-15T11:20:57.247Z,11.80
2022-12-15T11:23:46.659Z,12.50
2022-12-15T11:26:26.714Z,13.18
2022-12-15T11:29:01.585Z,14.07
2022-12-15T11:31:41.768Z,11.82
2022-12-15T11:34:15.654Z,13.23
2022-12-15T11:36:57.109Z,13.73
2022-12-15T11:39:39.885Z,14.30
2022-12-15T11:42:21.050Z,13.82
2022-12-15T11:45:02.392Z,14.88
2022-12-15T11:48:13.179Z,14.88
2022-12-15T11:51:36.570Z,15.73
2022-12-15T11:54:16.779Z,14.73
2022-12-15T11:57:21.064Z,13.65
2022-12-15T11:59:54.776Z,15.05
2022-12-15T12:02:57.600Z,14.75
2022-12-15T12:05:40.186Z,13.35
2022-12-15T12:08:39.646Z,14.25
2022-12-15T12:11:13.592Z,13.30
2022-12-15T12:14:02.597Z,13.00
2022-12-15T12:16:36.966Z,15.02
2022-12-15T12:19:19.545Z,13.05
2022-12-15T12:21:51.694Z,15.85
2022-12-15T12:24:41.366Z,15.45
2022-12-15T12:27:33.795Z,13.15
2022-12-15T12:30:06.788Z,13.77
2022-12-15T12:35:31.212Z,12.18
2022-12-15T12:38:04.419Z,15.50
2022-12-15T12:40:59.674Z,14.30
2022-12-15T12:43:52.670Z,14.07
2022-12-15T12:46:42.312Z,16.77
2022-12-15T12:49:44.362Z,14.05
2022-12-15T12:52:21.556Z,15.05
2022-12-15T12:55:00.823Z,13.00
2022-12-15T12:57:43.130Z,14.95
2022-12-15T13:00:21.337Z,14.40
2022-12-15T13:03:11.734Z,12.82
2022-12-15T13:05:41.366Z,14.93
2022-12-15T13:08:08.859Z,13.27
2022-12-15T13:10:47.629Z,14.48
2022-12-15T13:13:33.767Z,15.43
2022-12-15T13:16:25.644Z,15.73
2022-12-15T13:19:06.927Z,13.05
2022-12-15T13:21:43.851Z,12.30
2022-12-15T13:24:41.373Z,11.05
2022-12-15T13:27:09.166Z,28.27
2022-12-15T13:29:54.339Z,35.10
2022-12-15T13:32:40.985Z,24.70
2022-12-15T13:35:14.602Z,17.65
2022-12-15T13:37:57.451Z,13.70
2022-12-15T13:40:52.653Z,14.50
2022-12-15T13:43:26.417Z,14.85
2022-12-15T13:45:56.831Z,15.98
2022-12-15T13:48:27.653Z,14.70
2022-12-15T13:51:21.373Z,18.55
2022-12-15T13:54:01.461Z,15.38
2022-12-15T13:56:57.500Z,14.88
2022-12-15T13:59:33.814Z,15.13
2022-12-15T14:02:01.444Z,13.63
2022-12-15T14:04:29.523Z,15.38
2022-12-15T14:07:00.909Z,14.10
2022-12-15T14:09:33.840Z,15.95
2022-12-15T14:14:42.540Z,16.15
2022-12-15T14:17:15.423Z,17.38
2022-12-15T14:22:28.966Z,15.50
2022-12-15T14:25:20.525Z,17.08
2022-12-15T14:27:51.079Z,17.98
2022-12-15T14:30:45.175Z,17.58
2022-12-15T14:33:17.997Z,19.98
2022-12-15T14:35:50.039Z,19.60
2022-12-15T14:38:24.014Z,20.65
2022-12-15T14:40:54.300Z,18.55
2022-12-15T14:43:26.195Z,19.90
2022-12-15T14:46:07.807Z,20.17
2022-12-15T14:51:29.892Z,23.50
2022-12-15T14:53:57.677Z,22.02
2022-12-15T14:56:31.229Z,24.70
2022-12-15T14:59:05.892Z,23.17
2022-12-15T15:01:35.797Z,24.60
2022-12-15T15:03:04.236Z,10.60
2022-12-15T15:03:14.538Z,21.33
2022-12-15T15:04:06.124Z,22.60
2022-12-15T15:06:39.577Z,23.13
2022-12-15T15:09:38.337Z,24.02
2022-12-15T15:12:18.401Z,24.52
2022-12-15T15:14:53.180Z,24.13
2022-12-15T15:17:25.633Z,22.63
2022-12-15T15:20:27.845Z,25.27
2022-12-15T15:23:07.583Z,24.95
2022-12-15T15:25:40.683Z,21.75
2022-12-15T15:28:14.818Z,22.25
2022-12-15T15:30:56.719Z,22.10
2022-12-15T15:33:26.090Z,20.27
2022-12-15T15:35:56.352Z,22.60
2022-12-15T15:38:38.451Z,18.50
2022-12-15T15:41:16.221Z,18.00
2022-12-15T15:43:43.993Z,18.70
2022-12-15T15:46:18.113Z,20.88
2022-12-15T15:48:50.408Z,21.45
2022-12-15T15:51:18.935Z,23.98
2022-12-15T15:53:46.843Z,24.08
2022-12-15T15:56:16.660Z,28.15
2022-12-15T15:58:44.312Z,26.55
2022-12-15T16:01:13.617Z,23.50
2022-12-15T16:03:42.108Z,25.52
2022-12-15T16:06:21.134Z,23.10
2022-12-15T16:08:54.264Z,22.52
2022-12-15T16:11:23.128Z,23.38
2022-12-15T16:13:50.676Z,23.48
2022-12-15T16:16:26.856Z,17.70
2022-12-15T16:18:54.471Z,19.40
2022-12-15T16:21:25.332Z,22.60
2022-12-15T16:23:53.981Z,22.50
2022-12-15T16:26:32.750Z,23.10
2022-12-15T16:29:00.443Z,22.42
2022-12-15T16:31:41.915Z,19.38
2022-12-15T16:34:09.851Z,21.17
2022-12-15T16:36:37.869Z,18.85
2022-12-15T16:39:11.426Z,19.27
2022-12-15T16:41:39.151Z,19.65
2022-12-15T16:44:12.304Z,19.13
2022-12-15T16:46:40.022Z,16.83
2022-12-15T16:49:07.748Z,17.52
2022-12-15T16:51:40.254Z,16.17
2022-12-15T16:54:15.701Z,18.48
2022-12-15T16:56:43.447Z,16.13
2022-12-15T16:59:35.949Z,15.98
2022-12-15T17:02:24.384Z,16.73
2022-12-15T17:04:52.599Z,20.00
2022-12-15T17:07:21.201Z,21.65
2022-12-15T17:09:50.679Z,18.88
2022-12-15T17:12:18.839Z,17.83
2022-12-15T17:14:46.867Z,17.40
2022-12-15T17:17:16.717Z,17.90
2022-12-15T17:20:11.832Z,31.13
2022-12-15T17:22:33.418Z,37.20
2022-12-15T17:25:01.713Z,28.25
2022-12-15T17:27:30.361Z,21.50
2022-12-15T17:30:00.193Z,19.05
2022-12-15T17:32:27.894Z,20.65
2022-12-15T17:34:56.003Z,22.92
2022-12-15T17:37:27.090Z,17.48
2022-12-15T17:39:57.422Z,18.08
2022-12-15T17:42:25.197Z,19.48
2022-12-15T17:44:53.131Z,22.45
2022-12-15T17:47:21.387Z,18.00
2022-12-15T17:49:49.333Z,18.02
2022-12-15T17:52:20.441Z,16.42
2022-12-15T17:54:48.604Z,13.10
2022-12-15T17:57:16.221Z,14.00
2022-12-15T17:59:44.147Z,14.25
2022-12-15T18:02:14.346Z,11.90
2022-12-15T18:04:44.457Z,12.90
2022-12-15T18:07:23.923Z,15.32
2022-12-15T18:09:53.492Z,21.05
2022-12-15T18:12:24.055Z,26.35
2022-12-15T18:14:54.380Z,24.55
2022-12-15T18:17:24.406Z,19.50
2022-12-15T18:19:52.443Z,13.73
2022-12-15T18:22:24.893Z,14.15
2022-12-15T18:24:54.312Z,14.13
2022-12-15T18:27:28.244Z,14.52
2022-12-15T18:29:56.929Z,10.02
2022-12-15T18:32:27.053Z,11.15
2022-12-15T18:34:55.554Z,10.57
2022-12-15T18:37:25.328Z,9.98
2022-12-15T18:39:57.225Z,10.85
2022-12-15T18:42:30.390Z,10.35
2022-12-15T18:45:00.475Z,9.25
2022-12-15T18:47:28.625Z,10.30
2022-12-15T18:49:56.646Z,12.02
2022-12-15T18:52:30.013Z,10.43
2022-12-15T18:55:02.206Z,11.30
2022-12-15T18:57:32.563Z,10.68
2022-12-15T19:00:10.408Z,10.75
2022-12-15T19:02:39.041Z,11.88
2022-12-15T19:05:07.583Z,20.20
2022-12-15T19:07:37.233Z,23.42
2022-12-15T19:10:05.607Z,18.88
2022-12-15T19:12:34.518Z,13.43
2022-12-15T19:15:02.404Z,11.75
2022-12-15T19:17:48.735Z,10.65
2022-12-15T19:20:39.273Z,11.60
2022-12-15T19:23:07.810Z,13.85
2022-12-15T19:25:36.115Z,19.77
2022-12-15T19:28:07.243Z,18.10
2022-12-15T19:30:42.063Z,14.60
2022-12-15T19:33:13.475Z,14.13
2022-12-15T19:35:45.086Z,14.55
2022-12-15T19:38:24.951Z,21.27
2022-12-15T19:40:54.746Z,19.45
2022-12-15T19:43:26.169Z,15.65
2022-12-15T19:45:54.825Z,12.25
2022-12-15T19:48:24.036Z,9.73
2022-12-15T19:50:55.012Z,9.57
2022-12-15T19:53:28.776Z,8.98
2022-12-15T19:56:01.563Z,8.25
2022-12-15T19:58:32.021Z,11.02
2022-12-15T20:01:07.843Z,12.00
2022-12-15T20:03:37.591Z,12.00
2022-12-15T20:06:15.209Z,11.70
2022-12-15T20:08:45.807Z,13.50
2022-12-15T20:11:28.519Z,10.45
2022-12-15T20:13:56.827Z,9.68
2022-12-15T20:16:25.494Z,8.05
2022-12-15T20:18:56.652Z,8.25
2022-12-15T20:21:31.554Z,7.72
2022-12-15T20:24:06.768Z,6.65
2022-12-15T20:26:37.772Z,6.97
2022-12-15T20:29:19.377Z,6.57
2022-12-15T20:31:47.742Z,6.88
2022-12-15T20:34:18.659Z,7.82
2022-12-15T20:36:47.580Z,8.07
2022-12-15T20:39:25.574Z,7.63
2022-12-15T20:41:54.939Z,12.98
2022-12-15T20:44:24.698Z,8.98
2022-12-15T20:46:52.359Z,8.95
2022-12-15T20:49:22.339Z,9.20
2022-12-15T20:51:51.211Z,6.88
2022-12-15T20:54:22.022Z,7.75
2022-12-15T20:56:52.002Z,7.97
2022-12-15T20:59:19.730Z,11.07
2022-12-15T21:01:48.816Z,8.70
2022-12-15T21:04:22.561Z,8.07
2022-12-15T21:06:54.636Z,7.15
2022-12-15T21:09:23.773Z,7.55
2022-12-15T21:11:52.678Z,7.78
2022-12-15T21:14:24.119Z,8.93
2022-12-15T21:16:51.794Z,7.78
2022-12-15T21:19:21.291Z,8.57
2022-12-15T21:21:55.420Z,8.10
2022-12-15T21:24:26.460Z,9.60
2022-12-15T21:26:56.432Z,9.40
2022-12-15T21:29:26.541Z,9.25
2022-12-15T21:31:54.617Z,8.43
2022-12-15T21:34:22.256Z,8.13
2022-12-15T21:36:52.354Z,8.60
2022-12-15T21:39:34.133Z,8.38
2022-12-15T21:42:06.207Z,8.45
2022-12-15T21:44:33.935Z,9.13
2022-12-15T21:47:01.574Z,7.70
2022-12-15T21:49:29.126Z,7.95
2022-12-15T21:51:59.922Z,9.02
2022-12-15T21:54:31.722Z,7.43
2022-12-15T21:57:00.563Z,7.20
2022-12-15T21:59:33.152Z,9.65
2022-12-15T22:02:01.148Z,9.13
2022-12-15T22:04:32.554Z,9.02
2022-12-15T22:07:00.484Z,7.88
2022-12-15T22:09:28.741Z,7.85
2022-12-15T22:11:56.671Z,8.43
2022-12-15T22:14:27.002Z,8.90
2022-12-15T22:16:55.055Z,10.57
2022-12-15T22:19:23.452Z,9.50
2022-12-15T22:21:52.098Z,10.40
2022-12-15T22:24:20.214Z,11.00
2022-12-15T22:26:47.914Z,9.15
2022-12-15T22:29:19.126Z,10.20
2022-12-15T22:31:47.493Z,9.77
2022-12-15T22:34:19.728Z,9.32
2022-12-15T22:36:48.289Z,8.13
2022-12-15T22:39:16.588Z,6.80
2022-12-15T22:41:47.043Z,7.50
2022-12-15T22:44:20.101Z,7.85
2022-12-15T22:46:49.174Z,6.88
2022-12-15T22:49:21.466Z,8.57
2022-12-15T22:51:49.099Z,6.55
2022-12-15T22:54:22.727Z,7.55
2022-12-15T22:56:59.139Z,7.13
2022-12-15T22:59:36.223Z,7.57
2022-12-15T23:02:04.873Z,7.78
2022-12-15T23:04:33.160Z,8.77
2022-12-15T23:07:03.413Z,6.47
2022-12-15T23:09:31.400Z,7.05
2022-12-15T23:11:59.360Z,7.40
2022-12-15T23:14:46.094Z,8.43
2022-12-15T23:17:14.355Z,7.30
2022-12-15T23:19:46.070Z,9.80
2022-12-15T23:22:14.307Z,8.82
2022-12-15T23:24:42.177Z,8.70
2022-12-15T23:27:11.554Z,10.48
2022-12-15T23:29:39.292Z,9.02
2022-12-15T23:32:07.061Z,9.38
2022-12-15T23:34:35.803Z,8.55
2022-12-15T23:37:03.413Z,9.70
2022-12-15T23:39:31.240Z,7.82
2022-12-15T23:41:58.778Z,8.60
2022-12-15T23:44:26.653Z,9.13
2022-12-15T23:46:54.262Z,8.48
2022-12-15T23:49:21.978Z,9.15
2022-12-15T23:51:49.585Z,9.38
2022-12-15T23:54:17.134Z,10.07
2022-12-15T23:56:44.636Z,8.57
2022-12-15T23:59:13.074Z,7.18
